Terminal Aerodrome Forecast
Issued by NWS

Home | Current Version | Previous Version | Text Only | Print | Product List | Glossary Off
Versions: 1 2 3 4 5 6 7 8 9 10 11 12 13 14

000
FTUS43 KBIS 152300
TAFDIK
TAF
KDIK 152338Z 1600/1624 12014KT P6SM BKN100
     FM160300 09013KT P6SM -RASN OVC035
     FM160500 07010KT 3SM -SN OVC025
     FM161100 04008KT 4SM BR OVC010
     FM161600 04011KT P6SM OVC050=

USA.gov is the U.S. government's official web portal to all federal, state and local government web resources and services.